Skip Navigation LinksHome page > Weather > Current weather Skip Navigation Links

Current Weather

New Tokyo International (Narita), Tokyo

For information only: do not use for flight planning or navigation.
Latest weather
Observation time Thursday, August 25, 2016 11:30 AM JST
Local time Thursday, August 25, 2016 11:49 AM JST
Flight conditions Visual Meteorological Conditions
Winds
Wind direction South-Southeast (150°)
Winds variable from 120° to 190°
Wind speed 10 mph
Visibility 6.2 mi.
Sky condition
Ceiling 6,000 ft. broken clouds
Cloud layer scattered clouds 3,000 ft.
Cloud layer broken clouds 6,000 ft.
Temperature 84°F
Dewpoint 73°F
Altimeter 29.80 in.Hg
Derived measurements
Relative humidity 70%
Heat index 91°F
Density altitude 2272 ft.
Remarks
No significant changes expected in the next two hours.
METAR RJAA 250230Z 15009KT 120V190 9999 SCT030 BKN060 29/23 Q1009 NOSIG RMK 3CU030 5SC060 A2979

Settings

Location code

InnerDrive.Weather 4.0.5722.1 Release CLR 4.0.30319.34209
Copyright ©2015 Inner Drive Technology. All rights reserved. Portions Copyright ©1986-2015 David Braverman.

Find weather

Site navigation


Skip Navigation Links

Place info

Page info

PayPal - The safer, easier way to pay online!

Return home.

Copyright ©2016 Inner Drive Technology. Purveyors of fine, hand-crafted computer software. Page printed 2016-08-25T02:49:48 UTC.